Atlanta Naval Air Station, Georgia
Current Conditions -  °F | °C
As of 1:58 AM on Sunday 21 Dec 2014 (Local Time) from KMGE Reporting Station
Overcast Overcast  
Wind Chill: 47°   Ceiling: 1600
Heat Index: 47°   Visibility: 9mi
Dew Point: 44°   Wind: 3mph
Humidity: 92%   Direction: 40°NE
Pressure: 30.19"   Gusts: NA
Location:  33.9252°N, 84.5422°W
Report Text: KMGE 210658Z AUTO 04003KT 9SM R29/5500FT OVC016 08/07 A3019 RMK AO2 SLP226 T00810069 $
Loading
Personal Weather Stations






























Interactive Weather Map New forecast layout! Learn more

10-Day Weather Forecast

Advertisements
Track Severe Weather on mobile